Time;durP1;ratioP1;P1;durP2;ratioP2;P2;SDS_P1;SDS_P2;PMS_P1;PMS_P2;Temp;Humidity;BMP_temperature;BMP_pressure;BME280_temperature;BME280_humidity;BME280_pressure;Samples;Min_cycle;Max_cycle;Signal;HPM_P1;HPM_P2
2022/09/18 00:02:13;;;;;;;9.32;2.28;;;13.40;91.90;;;;;;5073596;28;20105;-75
2022/09/18 00:04:38;;;;;;;3.80;2.00;;;13.30;92.10;;;;;;5077834;28;20055;-74
2022/09/18 00:07:06;;;;;;;3.38;2.33;;;13.30;92.50;;;;;;5076138;28;20028;-74
2022/09/18 00:09:31;;;;;;;7.90;2.58;;;13.20;92.90;;;;;;5071515;28;20132;-75
2022/09/18 00:11:58;;;;;;;3.95;2.20;;;13.20;92.70;;;;;;5060072;28;20048;-74
2022/09/18 00:14:25;;;;;;;3.90;2.30;;;13.20;92.50;;;;;;5060459;28;20064;-74
2022/09/18 00:16:51;;;;;;;4.03;2.45;;;13.10;93.00;;;;;;5064347;28;20048;-74
2022/09/18 00:19:18;;;;;;;6.65;2.53;;;13.10;92.70;;;;;;5064727;28;20027;-74
2022/09/18 00:21:46;;;;;;;2.90;2.50;;;13.00;93.40;;;;;;5066572;28;20424;-75
2022/09/18 00:24:13;;;;;;;4.45;2.38;;;13.00;93.50;;;;;;5070595;28;20032;-74
2022/09/18 00:26:39;;;;;;;5.40;2.00;;;13.00;93.40;;;;;;5070849;28;20025;-74
2022/09/18 00:29:05;;;;;;;4.43;2.50;;;12.90;93.00;;;;;;5072593;28;20032;-74
2022/09/18 00:31:34;;;;;;;4.88;2.15;;;12.90;93.60;;;;;;5071074;28;20025;-74
2022/09/18 00:34:02;;;;;;;4.95;2.13;;;12.90;93.90;;;;;;5073786;28;20028;-74
2022/09/18 00:36:29;;;;;;;6.25;2.35;;;12.80;93.40;;;;;;5071592;28;20041;-75
2022/09/18 00:38:58;;;;;;;5.50;2.42;;;12.80;94.30;;;;;;5076146;28;20056;-74
2022/09/18 00:41:26;;;;;;;2.95;1.95;;;12.70;94.20;;;;;;5076561;28;20036;-74
2022/09/18 00:44:00;;;;;;;3.13;1.98;;;12.70;94.00;;;;;;5078588;28;20035;-74
2022/09/18 00:46:32;;;;;;;5.70;2.85;;;12.70;94.20;;;;;;5060603;28;20044;-75
2022/09/18 00:49:09;;;;;;;4.57;2.38;;;12.60;94.50;;;;;;5059746;28;20469;-74
2022/09/18 00:51:37;;;;;;;3.40;2.20;;;12.60;94.60;;;;;;5061756;28;20025;-75
2022/09/18 00:54:37;;;;;;;4.20;2.75;;;12.60;94.60;;;;;;5063177;28;20431;-74
2022/09/18 00:57:17;;;;;;;4.85;2.17;;;12.50;94.80;;;;;;5062945;28;20044;-75
2022/09/18 00:59:46;;;;;;;4.38;2.67;;;12.50;95.00;;;;;;5072771;28;20106;-74
2022/09/18 01:02:12;;;;;;;2.42;2.20;;;12.40;94.80;;;;;;5068210;28;20029;-74
2022/09/18 01:04:39;;;;;;;4.03;2.53;;;12.40;94.80;;;;;;5074183;28;20392;-74
2022/09/18 01:07:13;;;;;;;2.60;2.30;;;12.40;94.90;;;;;;5071556;28;20047;-74
2022/09/18 01:09:57;;;;;;;5.03;2.25;;;12.40;95.30;;;;;;5076212;28;20028;-74
2022/09/18 01:12:44;;;;;;;4.68;2.47;;;12.40;95.10;;;;;;5077423;28;20028;-74
2022/09/18 01:15:36;;;;;;;4.63;2.45;;;12.30;95.40;;;;;;5062205;28;20029;-74
2022/09/18 01:18:33;;;;;;;4.47;2.53;;;12.30;95.20;;;;;;5059544;28;20025;-75
2022/09/18 01:21:18;;;;;;;5.38;2.63;;;12.30;96.00;;;;;;5071286;28;20052;-74
2022/09/18 01:24:32;;;;;;;4.68;2.00;;;12.20;95.70;;;;;;5065311;28;20012;-74
2022/09/18 01:27:05;;;;;;;2.78;2.38;;;12.20;95.90;;;;;;5058808;28;20103;-75
2022/09/18 01:29:54;;;;;;;3.22;2.10;;;12.10;96.50;;;;;;5063274;28;20032;-74
2022/09/18 01:32:30;;;;;;;4.97;2.38;;;12.10;96.50;;;;;;5067280;28;20035;-74
2022/09/18 01:35:10;;;;;;;4.40;2.28;;;12.00;96.60;;;;;;5070799;28;20016;-75
2022/09/18 01:37:52;;;;;;;4.05;2.10;;;12.00;97.20;;;;;;5067559;28;20041;-74
2022/09/18 01:40:51;;;;;;;4.25;2.30;;;11.90;97.30;;;;;;5065944;28;20021;-74
2022/09/18 01:43:19;;;;;;;4.57;2.40;;;11.80;97.60;;;;;;5074042;28;20020;-74
2022/09/18 01:45:48;;;;;;;4.90;2.40;;;11.80;97.50;;;;;;5074982;28;20099;-75
2022/09/18 01:48:28;;;;;;;4.28;2.40;;;11.70;98.00;;;;;;5077360;28;20028;-75
2022/09/18 01:51:19;;;;;;;4.15;2.85;;;11.70;97.90;;;;;;5061618;28;20033;-74
2022/09/18 01:53:53;;;;;;;2.30;2.10;;;11.70;98.40;;;;;;5057789;28;20192;-75
2022/09/18 01:56:25;;;;;;;3.28;2.30;;;11.60;98.60;;;;;;5060957;28;20017;-75
2022/09/18 01:58:56;;;;;;;3.25;2.53;;;11.50;98.90;;;;;;5068308;28;20389;-75
2022/09/18 02:01:27;;;;;;;5.03;2.47;;;11.40;99.00;;;;;;5072201;28;20016;-75
2022/09/18 02:03:59;;;;;;;4.68;2.53;;;11.40;99.20;;;;;;5069360;28;20013;-75
2022/09/18 02:06:31;;;;;;;2.28;2.08;;;11.30;99.40;;;;;;5074268;28;20052;-75
2022/09/18 02:08:58;;;;;;;3.80;2.50;;;11.20;99.80;;;;;;5072918;28;20034;-74
2022/09/18 02:11:24;;;;;;;4.63;2.47;;;11.20;99.70;;;;;;5074652;28;20111;-74
2022/09/18 02:14:15;;;;;;;4.38;2.65;;;11.20;99.90;;;;;;5070709;28;20060;-75
2022/09/18 02:16:50;;;;;;;6.07;2.63;;;11.10;99.90;;;;;;5060844;28;20031;-74
2022/09/18 02:19:26;;;;;;;7.47;2.50;;;11.00;99.90;;;;;;5077247;28;20465;-75
2022/09/18 02:21:54;;;;;;;3.78;2.28;;;11.00;99.90;;;;;;5073280;28;20025;-75
2022/09/18 02:24:23;;;;;;;4.30;2.83;;;11.00;99.90;;;;;;5062534;28;20084;-75
2022/09/18 02:26:51;;;;;;;6.93;2.67;;;11.00;99.90;;;;;;5074729;28;20099;-75
2022/09/18 02:29:20;;;;;;;6.93;2.80;;;11.00;99.90;;;;;;5074198;28;20028;-75
2022/09/18 02:31:47;;;;;;;5.75;2.60;;;10.90;99.90;;;;;;5073349;28;20024;-75
2022/09/18 02:34:14;;;;;;;5.50;2.35;;;10.90;99.90;;;;;;5076899;28;20067;-75
2022/09/18 02:36:54;;;;;;;4.22;2.72;;;10.70;99.90;;;;;;5059586;28;20037;-75
2022/09/18 02:39:20;;;;;;;2.97;2.50;;;10.70;99.90;;;;;;5060046;28;20043;-74
2022/09/18 02:42:15;;;;;;;5.03;2.40;;;10.60;99.90;;;;;;5062898;28;20450;-75
2022/09/18 02:45:00;;;;;;;4.95;2.80;;;10.60;99.90;;;;;;5062301;28;20041;-75
2022/09/18 02:47:55;;;;;;;2.60;2.40;;;10.50;99.90;;;;;;5068026;28;20432;-75
2022/09/18 02:50:33;;;;;;;3.00;2.47;;;10.50;99.90;;;;;;5071478;28;20044;-75
2022/09/18 02:53:28;;;;;;;3.15;2.70;;;10.50;99.90;;;;;;5082388;28;20029;-75
2022/09/18 02:56:28;;;;;;;4.43;2.85;;;10.40;99.90;;;;;;5079719;28;20036;-77
2022/09/18 02:59:07;;;;;;;5.50;2.65;;;10.40;99.90;;;;;;5046690;28;20055;-75
2022/09/18 03:01:33;;;;;;;2.78;2.53;;;10.40;99.90;;;;;;5081644;28;20111;-75
2022/09/18 03:04:14;;;;;;;3.85;2.45;;;10.40;99.90;;;;;;5080757;28;20035;-75
2022/09/18 03:06:40;;;;;;;6.80;3.17;;;10.30;99.90;;;;;;5070582;28;20047;-75
2022/09/18 03:09:06;;;;;;;5.82;2.70;;;10.30;99.90;;;;;;5063883;28;20029;-75
2022/09/18 03:11:32;;;;;;;7.07;3.42;;;10.30;99.90;;;;;;5065223;28;20080;-75
2022/09/18 03:13:58;;;;;;;4.85;2.60;;;10.30;99.90;;;;;;5069145;28;20025;-75
2022/09/18 03:16:24;;;;;;;2.78;2.58;;;10.30;99.90;;;;;;5067462;28;20025;-75
2022/09/18 03:18:49;;;;;;;4.97;2.83;;;10.30;99.90;;;;;;5072100;28;20123;-76
2022/09/18 03:21:15;;;;;;;8.10;2.70;;;10.30;99.90;;;;;;5073509;28;20024;-75
2022/09/18 03:23:41;;;;;;;7.13;3.25;;;10.30;99.90;;;;;;5079189;28;20044;-75
2022/09/18 03:26:07;;;;;;;7.05;2.80;;;10.20;99.90;;;;;;5077214;28;20028;-75
2022/09/18 03:28:33;;;;;;;5.00;2.50;;;10.20;99.90;;;;;;5075859;28;20374;-77
2022/09/18 03:30:59;;;;;;;4.93;2.53;;;10.20;99.90;;;;;;5072458;28;20099;-77
2022/09/18 03:33:24;;;;;;;2.85;2.50;;;10.20;99.90;;;;;;5067439;28;20451;-77
2022/09/18 03:35:50;;;;;;;3.97;2.50;;;10.20;99.90;;;;;;5067090;28;20106;-77
2022/09/18 03:38:16;;;;;;;3.65;2.60;;;10.20;99.90;;;;;;5081047;28;20021;-74
2022/09/18 03:40:45;;;;;;;5.00;2.72;;;10.20;99.90;;;;;;5069618;28;20533;-75
2022/09/18 03:43:11;;;;;;;3.35;2.53;;;10.20;99.90;;;;;;5072864;28;20037;-75
2022/09/18 03:45:37;;;;;;;3.70;2.60;;;10.20;99.90;;;;;;5073025;28;20032;-74
2022/09/18 03:48:03;;;;;;;4.03;2.45;;;10.30;99.90;;;;;;5075181;28;20476;-75
2022/09/18 03:50:29;;;;;;;6.30;2.80;;;10.30;99.90;;;;;;5076653;28;20024;-75
2022/09/18 03:52:55;;;;;;;5.90;3.00;;;10.30;99.90;;;;;;5078300;28;20507;-74
2022/09/18 03:55:21;;;;;;;2.72;2.53;;;10.30;99.90;;;;;;5081160;28;20021;-74
2022/09/18 03:57:47;;;;;;;10.82;3.33;;;10.20;99.90;;;;;;5080777;28;20020;-77
2022/09/18 04:00:14;;;;;;;3.45;2.58;;;10.20;99.90;;;;;;5069788;28;20032;-77
2022/09/18 04:02:40;;;;;;;3.70;2.75;;;10.30;99.90;;;;;;5061663;28;20367;-77
2022/09/18 04:05:07;;;;;;;5.47;2.67;;;10.20;99.90;;;;;;5061916;28;20025;-77
2022/09/18 04:07:32;;;;;;;6.60;2.50;;;10.20;99.90;;;;;;5065200;28;20017;-77
2022/09/18 04:09:58;;;;;;;5.68;3.00;;;10.20;99.90;;;;;;5063302;28;20051;-77
2022/09/18 04:12:24;;;;;;;4.93;3.00;;;10.20;99.90;;;;;;5068153;28;20035;-77
2022/09/18 04:14:50;;;;;;;5.63;3.15;;;10.10;99.90;;;;;;5064852;28;20497;-76
2022/09/18 04:17:16;;;;;;;3.83;3.35;;;10.10;99.90;;;;;;5070954;28;20024;-76
2022/09/18 04:19:42;;;;;;;8.50;3.05;;;10.10;99.90;;;;;;5069682;28;20018;-77
2022/09/18 04:22:08;;;;;;;6.97;3.67;;;10.10;99.90;;;;;;5073869;28;20139;-76
2022/09/18 04:24:38;;;;;;;3.42;2.65;;;10.10;99.90;;;;;;5073414;28;20381;-77
2022/09/18 04:27:05;;;;;;;3.10;2.78;;;10.10;99.90;;;;;;5075661;28;20149;-76
2022/09/18 04:29:31;;;;;;;7.13;2.58;;;10.10;99.90;;;;;;5078102;28;20017;-77
2022/09/18 04:31:57;;;;;;;5.10;2.50;;;10.10;99.90;;;;;;5072888;28;20025;-76
2022/09/18 04:34:23;;;;;;;3.92;2.33;;;10.10;99.90;;;;;;5059064;28;20059;-77
2022/09/18 04:36:49;;;;;;;4.53;2.85;;;10.00;99.90;;;;;;5063145;28;20041;-77
2022/09/18 04:39:15;;;;;;;3.60;2.60;;;10.00;99.90;;;;;;5062357;28;20021;-77
2022/09/18 04:41:41;;;;;;;5.28;2.70;;;10.00;99.90;;;;;;5066420;28;20081;-77
2022/09/18 04:44:06;;;;;;;4.32;2.67;;;9.90;99.90;;;;;;5064229;28;20481;-77
2022/09/18 04:46:32;;;;;;;2.92;2.63;;;9.90;99.90;;;;;;5070895;28;20107;-77
2022/09/18 04:48:58;;;;;;;3.60;2.50;;;9.80;99.90;;;;;;5066156;28;20079;-77
2022/09/18 04:51:24;;;;;;;4.15;2.83;;;9.80;99.90;;;;;;5073240;28;20017;-77
2022/09/18 04:53:50;;;;;;;3.17;2.88;;;9.70;99.90;;;;;;5070246;28;20027;-74
2022/09/18 04:56:16;;;;;;;8.38;3.05;;;9.70;99.90;;;;;;5074933;28;20103;-75
2022/09/18 04:58:42;;;;;;;4.82;2.83;;;9.60;99.90;;;;;;5073971;28;20029;-75
2022/09/18 05:01:08;;;;;;;3.63;2.80;;;9.60;99.90;;;;;;5077033;28;20867;-77
2022/09/18 05:03:33;;;;;;;2.80;2.60;;;9.50;99.90;;;;;;5076503;28;20025;-77
2022/09/18 05:05:59;;;;;;;3.00;2.67;;;9.50;99.90;;;;;;5072345;28;20111;-77
2022/09/18 05:08:28;;;;;;;6.32;2.83;;;9.40;99.90;;;;;;5059899;28;20400;-77
2022/09/18 05:10:54;;;;;;;6.10;2.67;;;9.40;99.90;;;;;;5076350;28;20044;-77
2022/09/18 05:13:20;;;;;;;4.15;2.80;;;9.40;99.90;;;;;;5061311;28;20032;-77
2022/09/18 05:15:46;;;;;;;5.38;2.53;;;9.40;99.90;;;;;;5066178;28;20017;-77
2022/09/18 05:18:12;;;;;;;3.72;2.65;;;9.30;99.90;;;;;;5063255;28;20048;-77
2022/09/18 05:20:38;;;;;;;3.13;2.53;;;9.30;99.90;;;;;;5075109;28;20542;-77
2022/09/18 05:23:05;;;;;;;4.30;2.50;;;9.20;99.90;;;;;;5077209;28;20028;-77
2022/09/18 05:25:31;;;;;;;3.95;2.92;;;9.20;99.90;;;;;;5072784;28;20453;-77
2022/09/18 05:28:02;;;;;;;4.95;3.40;;;9.30;99.90;;;;;;5065094;28;20057;-77
2022/09/18 05:30:28;;;;;;;5.47;2.88;;;9.20;99.90;;;;;;5075380;28;20067;-77
2022/09/18 05:33:03;;;;;;;5.95;2.90;;;9.20;99.90;;;;;;5076554;28;20059;-77
2022/09/18 05:35:31;;;;;;;6.65;3.08;;;9.30;99.90;;;;;;5069106;28;20127;-77
2022/09/18 05:37:57;;;;;;;8.80;3.72;;;9.30;99.90;;;;;;5072520;28;20021;-77
2022/09/18 05:40:25;;;;;;;4.28;2.80;;;9.30;99.90;;;;;;5060376;28;20091;-77
2022/09/18 05:42:52;;;;;;;3.80;3.10;;;9.40;99.90;;;;;;5062209;28;20064;-77
2022/09/18 05:45:19;;;;;;;7.80;3.22;;;9.30;99.90;;;;;;5061680;28;20017;-77
2022/09/18 05:47:54;;;;;;;4.43;2.80;;;9.30;99.90;;;;;;5065686;28;20036;-77
2022/09/18 05:50:20;;;;;;;5.00;2.83;;;9.30;99.90;;;;;;5063857;28;20057;-77
2022/09/18 05:52:46;;;;;;;4.05;2.85;;;9.30;99.90;;;;;;5069653;28;20540;-77
2022/09/18 05:55:12;;;;;;;3.50;2.97;;;9.20;99.90;;;;;;5074677;28;20020;-77
2022/09/18 05:57:38;;;;;;;5.07;2.90;;;9.20;99.90;;;;;;5071209;28;20921;-77
2022/09/18 06:00:04;;;;;;;5.25;3.03;;;9.30;99.90;;;;;;5073140;28;20017;-77
2022/09/18 06:02:30;;;;;;;3.97;3.00;;;9.30;99.90;;;;;;5073187;28;20108;-77
2022/09/18 06:04:56;;;;;;;5.60;2.90;;;9.20;99.90;;;;;;5076068;28;20070;-77
2022/09/18 06:07:21;;;;;;;4.80;3.00;;;9.20;99.90;;;;;;5076362;28;20024;-77
2022/09/18 06:09:47;;;;;;;4.43;2.83;;;9.30;99.90;;;;;;5065093;28;20029;-77
2022/09/18 06:12:13;;;;;;;4.45;2.70;;;9.30;99.90;;;;;;5060036;28;20024;-77
2022/09/18 06:14:39;;;;;;;3.70;3.08;;;9.30;99.90;;;;;;5058682;28;20496;-76
2022/09/18 06:17:05;;;;;;;3.53;3.00;;;9.30;99.90;;;;;;5063823;28;20077;-77
2022/09/18 06:19:31;;;;;;;4.35;2.83;;;9.40;99.90;;;;;;5061280;28;20547;-77
2022/09/18 06:21:57;;;;;;;3.55;3.00;;;9.50;99.90;;;;;;5064639;28;20028;-77
2022/09/18 06:24:22;;;;;;;4.63;2.75;;;9.60;99.90;;;;;;5066686;28;20013;-77
2022/09/18 06:26:48;;;;;;;3.58;2.97;;;9.60;99.90;;;;;;5076628;28;20435;-77
2022/09/18 06:29:14;;;;;;;3.28;2.80;;;9.70;99.90;;;;;;5071873;28;20016;-77
2022/09/18 06:31:40;;;;;;;8.30;2.92;;;9.80;99.90;;;;;;5060996;28;20562;-77
2022/09/18 06:34:06;;;;;;;3.47;2.97;;;9.90;99.90;;;;;;5071157;28;20029;-77
2022/09/18 06:36:32;;;;;;;4.72;3.13;;;9.90;99.90;;;;;;5070255;28;20045;-77
2022/09/18 06:38:57;;;;;;;4.57;2.80;;;10.00;99.90;;;;;;5073580;28;20021;-77
2022/09/18 06:41:23;;;;;;;5.30;2.70;;;10.20;99.90;;;;;;5073780;28;20025;-77
2022/09/18 06:43:49;;;;;;;6.25;2.90;;;10.20;99.90;;;;;;5074897;28;20021;-77
2022/09/18 06:46:15;;;;;;;3.00;2.70;;;10.30;99.90;;;;;;5073064;28;20029;-77
2022/09/18 06:48:41;;;;;;;7.43;3.03;;;10.40;99.90;;;;;;5057613;28;20021;-77
2022/09/18 06:51:08;;;;;;;6.15;3.10;;;10.60;99.90;;;;;;5059389;28;20028;-77
2022/09/18 06:53:34;;;;;;;5.03;2.67;;;10.80;99.90;;;;;;5059820;28;20021;-77
2022/09/18 06:56:02;;;;;;;3.30;2.65;;;11.00;99.90;;;;;;5064031;28;20016;-77
2022/09/18 06:58:28;;;;;;;5.03;2.75;;;11.10;99.90;;;;;;5066469;28;20059;-77
2022/09/18 07:00:54;;;;;;;5.25;3.38;;;11.30;99.90;;;;;;5067454;28;20021;-75
2022/09/18 07:03:19;;;;;;;4.45;3.15;;;11.40;99.90;;;;;;5066169;28;20025;-75
2022/09/18 07:05:45;;;;;;;4.45;2.70;;;11.50;99.90;;;;;;5066780;28;20029;-75
2022/09/18 07:08:12;;;;;;;9.32;3.40;;;11.70;99.90;;;;;;5068524;28;20032;-75
2022/09/18 07:10:39;;;;;;;4.63;3.05;;;11.80;99.90;;;;;;5069962;28;20024;-75
2022/09/18 07:13:05;;;;;;;4.90;3.05;;;11.90;99.90;;;;;;5073377;28;20024;-75
2022/09/18 07:15:32;;;;;;;4.13;2.83;;;12.10;99.90;;;;;;5072283;28;20021;-75
2022/09/18 07:18:00;;;;;;;6.85;2.72;;;12.10;99.90;;;;;;5075967;28;20016;-75
2022/09/18 07:20:28;;;;;;;6.30;2.80;;;12.20;99.90;;;;;;5057447;28;20021;-75
2022/09/18 07:22:57;;;;;;;4.75;2.90;;;12.40;99.90;;;;;;5056702;28;20433;-75
2022/09/18 07:25:24;;;;;;;4.20;2.45;;;12.50;99.90;;;;;;5070508;28;20025;-75
2022/09/18 07:27:50;;;;;;;2.85;2.60;;;12.50;99.90;;;;;;5059596;28;20393;-75
2022/09/18 07:30:16;;;;;;;5.45;2.92;;;12.60;99.90;;;;;;5064676;28;20024;-75
2022/09/18 07:32:43;;;;;;;4.30;2.90;;;12.60;99.90;;;;;;5066724;28;20024;-75
2022/09/18 07:35:09;;;;;;;5.25;2.42;;;12.80;99.90;;;;;;5069898;28;20476;-75
2022/09/18 07:37:36;;;;;;;6.95;2.65;;;12.80;99.90;;;;;;5065762;28;20520;-75
2022/09/18 07:40:02;;;;;;;3.78;2.78;;;12.90;99.90;;;;;;5075642;28;20024;-75
2022/09/18 07:42:27;;;;;;;8.02;3.53;;;13.00;99.90;;;;;;5073419;28;20043;-75
2022/09/18 07:44:53;;;;;;;4.75;2.38;;;13.10;99.90;;;;;;5077387;28;20028;-74
2022/09/18 07:47:19;;;;;;;3.80;2.67;;;13.20;99.90;;;;;;5074944;28;20070;-75
2022/09/18 07:49:45;;;;;;;5.03;2.35;;;13.20;99.90;;;;;;5079999;28;20032;-75
2022/09/18 07:52:11;;;;;;;4.60;2.72;;;13.30;99.90;;;;;;5072667;28;20024;-75
2022/09/18 07:54:37;;;;;;;8.65;2.83;;;13.50;99.90;;;;;;5077377;28;20081;-75
2022/09/18 07:57:03;;;;;;;3.85;2.80;;;13.60;99.90;;;;;;5071079;28;20028;-75
2022/09/18 07:59:29;;;;;;;10.98;2.65;;;13.70;99.90;;;;;;5073135;28;20497;-75
2022/09/18 08:01:56;;;;;;;5.75;2.92;;;13.70;99.90;;;;;;5066947;28;20190;-75
2022/09/18 08:04:21;;;;;;;5.07;2.40;;;13.70;99.90;;;;;;5071027;28;20495;-75
2022/09/18 08:06:52;;;;;;;9.75;2.40;;;13.80;99.90;;;;;;5073045;28;20025;-75
2022/09/18 08:09:18;;;;;;;3.60;2.45;;;13.90;99.90;;;;;;5076502;28;20096;-74
2022/09/18 08:11:45;;;;;;;4.45;2.45;;;13.90;99.90;;;;;;5077348;28;20057;-75
2022/09/18 08:14:11;;;;;;;7.55;3.17;;;14.00;99.90;;;;;;5079542;28;20396;-75
2022/09/18 08:16:37;;;;;;;4.60;2.25;;;14.10;99.90;;;;;;5065204;28;20532;-75
2022/09/18 08:19:03;;;;;;;7.13;2.50;;;14.20;99.90;;;;;;5062220;28;20017;-75
2022/09/18 08:21:30;;;;;;;3.50;2.00;;;14.20;99.90;;;;;;5072865;28;20073;-75
2022/09/18 08:23:56;;;;;;;2.20;1.95;;;14.40;99.90;;;;;;5065247;28;20028;-74
2022/09/18 08:26:22;;;;;;;6.60;2.22;;;14.60;99.90;;;;;;5068740;28;20028;-75
2022/09/18 08:28:48;;;;;;;3.65;2.00;;;14.60;99.90;;;;;;5068789;28;20102;-74
2022/09/18 08:31:14;;;;;;;6.82;2.10;;;14.70;99.90;;;;;;5065953;28;20025;-75
2022/09/18 08:33:40;;;;;;;7.65;2.28;;;14.80;99.90;;;;;;5072755;28;20020;-74
2022/09/18 08:36:06;;;;;;;7.07;3.00;;;14.90;99.90;;;;;;5067593;28;20064;-74
2022/09/18 08:38:32;;;;;;;5.85;2.25;;;14.90;99.90;;;;;;5073328;28;20057;-75
2022/09/18 08:41:47;;;;;;;5.22;2.25;;;15.00;98.70;;;;;;5070284;28;20041;-75
2022/09/18 08:44:27;;;;;;;5.05;2.00;;;15.20;99.90;;;;;;5031879;28;20029;-74
2022/09/18 08:46:59;;;;;;;3.30;1.90;;;15.30;97.20;;;;;;5071132;28;20447;-75
2022/09/18 08:49:55;;;;;;;4.10;1.95;;;15.50;99.00;;;;;;5078270;28;20021;-75
2022/09/18 08:52:24;;;;;;;3.45;1.95;;;15.70;95.20;;;;;;5075063;28;20036;-74
2022/09/18 08:54:59;;;;;;;4.22;1.80;;;15.80;99.30;;;;;;5064242;28;20568;-75
2022/09/18 08:57:41;;;;;;;3.53;2.15;;;16.10;98.00;;;;;;5075034;28;20111;-74
2022/09/18 09:00:30;;;;;;;5.53;2.05;;;16.10;96.00;;;;;;5077733;28;20103;-75
2022/09/18 09:03:24;;;;;;;4.43;1.95;;;16.10;95.30;;;;;;5066616;28;20017;-75
2022/09/18 09:06:00;;;;;;;7.25;2.13;;;16.20;94.60;;;;;;5073600;28;20159;-74
2022/09/18 09:08:35;;;;;;;3.70;2.22;;;16.10;94.40;;;;;;5061061;28;20115;-75
2022/09/18 09:11:24;;;;;;;5.15;1.60;;;16.30;97.40;;;;;;5061857;28;20024;-75
2022/09/18 09:13:50;;;;;;;8.70;2.00;;;16.40;94.60;;;;;;5066543;28;20051;-75
2022/09/18 09:16:44;;;;;;;5.72;1.77;;;16.60;93.60;;;;;;5062941;28;20020;-75
2022/09/18 09:19:36;;;;;;;6.30;1.77;;;16.70;95.00;;;;;;5075903;28;20477;-74
2022/09/18 09:22:12;;;;;;;4.03;1.60;;;16.80;94.80;;;;;;5074577;28;20024;-75
2022/09/18 09:25:12;;;;;;;3.45;1.90;;;16.80;93.80;;;;;;5069398;28;20013;-75
2022/09/18 09:27:42;;;;;;;3.15;1.83;;;16.80;91.30;;;;;;5070576;28;20456;-74
2022/09/18 09:30:15;;;;;;;4.05;2.33;;;16.90;96.40;;;;;;5072361;28;20021;-74
2022/09/18 09:33:04;;;;;;;4.65;1.90;;;17.00;94.30;;;;;;5076143;28;20404;-75
2022/09/18 09:35:47;;;;;;;2.60;1.63;;;17.10;93.50;;;;;;5075824;28;20040;-75
2022/09/18 09:38:49;;;;;;;3.78;1.50;;;17.00;92.30;;;;;;5059889;28;20115;-75
2022/09/18 09:41:35;;;;;;;3.80;1.98;;;16.90;93.50;;;;;;5076975;28;20045;-75
2022/09/18 09:44:10;;;;;;;5.47;1.65;;;17.10;92.30;;;;;;5059947;28;20560;-74
2022/09/18 09:47:05;;;;;;;2.20;1.67;;;17.30;93.20;;;;;;5073801;28;20025;-75
2022/09/18 09:49:40;;;;;;;22.92;2.00;;;17.40;92.40;;;;;;5062563;28;20496;-75
2022/09/18 09:52:36;;;;;;;2.78;1.67;;;17.40;90.80;;;;;;5064565;28;20021;-74
2022/09/18 09:55:25;;;;;;;5.22;1.65;;;17.40;90.50;;;;;;5067687;28;20446;-74
2022/09/18 09:58:01;;;;;;;4.00;1.90;;;17.60;90.90;;;;;;5073771;28;20139;-75
2022/09/18 10:00:44;;;;;;;3.63;1.27;;;17.70;91.50;;;;;;5071703;28;20052;-74
2022/09/18 10:03:34;;;;;;;5.13;1.33;;;17.70;87.90;;;;;;5076164;28;20383;-75
2022/09/18 10:06:26;;;;;;;4.97;1.80;;;17.70;87.60;;;;;;5063278;28;20020;-75
2022/09/18 10:09:06;;;;;;;2.80;1.65;;;17.80;90.20;;;;;;5060059;28;20041;-75
2022/09/18 10:11:35;;;;;;;7.67;1.60;;;17.90;90.80;;;;;;5059127;28;20025;-75
2022/09/18 10:14:09;;;;;;;5.50;1.52;;;17.80;84.80;;;;;;5061920;28;20024;-74
2022/09/18 10:16:41;;;;;;;3.72;2.08;;;17.80;86.00;;;;;;5062350;28;20050;-74
2022/09/18 10:19:12;;;;;;;4.00;1.70;;;17.90;90.30;;;;;;5064260;28;20013;-75
2022/09/18 10:21:40;;;;;;;4.32;1.65;;;18.00;86.60;;;;;;5062668;28;20024;-74
2022/09/18 10:24:45;;;;;;;6.80;1.70;;;18.10;86.60;;;;;;5067348;28;20032;-75
2022/09/18 10:27:13;;;;;;;3.03;1.65;;;18.20;83.90;;;;;;5064248;28;20036;-75
2022/09/18 10:29:40;;;;;;;5.28;1.55;;;18.40;85.00;;;;;;5066623;28;20104;-75
2022/09/18 10:32:06;;;;;;;3.33;1.50;;;18.50;84.90;;;;;;5071475;28;20094;-75
2022/09/18 10:34:49;;;;;;;3.38;1.50;;;18.60;82.10;;;;;;5068454;28;20016;-74
2022/09/18 10:37:27;;;;;;;2.78;1.70;;;18.70;83.60;;;;;;5074341;28;20049;-75
2022/09/18 10:40:01;;;;;;;2.53;1.60;;;18.80;81.30;;;;;;5074701;28;20020;-74
2022/09/18 10:42:43;;;;;;;4.63;1.65;;;18.80;80.00;;;;;;5076583;28;20024;-75
2022/09/18 10:45:30;;;;;;;3.72;1.75;;;19.00;79.00;;;;;;5069717;28;20085;-75
2022/09/18 10:48:26;;;;;;;2.95;1.40;;;18.90;76.50;;;;;;5059467;28;20067;-75
2022/09/18 10:50:53;;;;;;;5.68;1.88;;;19.00;79.10;;;;;;5052796;28;20041;-76
2022/09/18 10:53:41;;;;;;;2.35;1.20;;;19.00;77.50;;;;;;5062026;28;20079;-75
2022/09/18 10:56:20;;;;;;;3.35;1.85;;;19.10;77.70;;;;;;5086258;28;20078;-75
2022/09/18 10:58:46;;;;;;;3.80;1.45;;;19.10;77.40;;;;;;5067711;28;20028;-75
2022/09/18 11:01:13;;;;;;;5.45;1.70;;;19.20;76.60;;;;;;5073957;28;20556;-76
2022/09/18 11:04:03;;;;;;;2.63;1.60;;;19.20;77.90;;;;;;5071582;28;20029;-76
2022/09/18 11:06:33;;;;;;;4.35;1.58;;;19.30;78.80;;;;;;5074581;28;20024;-75
2022/09/18 11:09:01;;;;;;;3.07;1.43;;;19.40;72.70;;;;;;5073159;28;20304;-75
2022/09/18 11:11:41;;;;;;;2.28;1.40;;;19.30;71.30;;;;;;5057609;28;20307;-76
2022/09/18 11:14:25;;;;;;;3.85;1.42;;;19.30;74.10;;;;;;5063796;28;20519;-76
2022/09/18 11:16:54;;;;;;;2.65;1.50;;;19.20;72.40;;;;;;5065010;28;20055;-76
2022/09/18 11:19:51;;;;;;;2.55;1.38;;;19.40;71.40;;;;;;5064752;28;20039;-75
2022/09/18 11:22:35;;;;;;;3.85;1.67;;;19.60;72.10;;;;;;5065698;28;20036;-75
2022/09/18 11:25:26;;;;;;;4.10;1.40;;;19.80;72.10;;;;;;5074678;28;20021;-75
2022/09/18 11:27:55;;;;;;;2.70;1.90;;;19.80;72.70;;;;;;5068837;28;20396;-76
2022/09/18 11:30:35;;;;;;;3.13;1.45;;;20.00;69.70;;;;;;5067785;28;20064;-75
2022/09/18 11:33:09;;;;;;;4.55;1.63;;;19.90;66.90;;;;;;5071947;28;20029;-75
2022/09/18 11:35:42;;;;;;;2.17;1.58;;;19.80;64.80;;;;;;5077738;28;20032;-77
2022/09/18 11:38:14;;;;;;;3.35;1.70;;;19.80;65.60;;;;;;5075611;28;20071;-75
2022/09/18 11:40:48;;;;;;;2.85;1.58;;;19.80;67.10;;;;;;5079619;28;20036;-75
2022/09/18 11:43:29;;;;;;;4.65;1.75;;;20.00;69.10;;;;;;5077443;28;20021;-76
2022/09/18 11:46:12;;;;;;;;;;;20.10;68.40;;;;;;5076928;28;20063;-75
2022/09/18 11:48:49;;;;;;;3.30;1.50;;;20.10;66.50;;;;;;5075128;28;20004;-76
2022/09/18 11:51:25;;;;;;;7.35;1.55;;;20.20;66.90;;;;;;5077805;28;20021;-76
2022/09/18 11:54:01;;;;;;;2.03;1.48;;;20.30;66.10;;;;;;5063721;28;20080;-75
2022/09/18 11:56:40;;;;;;;3.47;1.75;;;20.40;61.50;;;;;;5065823;28;20029;-76
2022/09/18 12:00:02;;;;;;;2.97;1.50;;;20.40;61.70;;;;;;5076265;28;20024;-76
2022/09/18 12:02:37;;;;;;;3.17;1.50;;;20.50;64.20;;;;;;5027782;28;20021;-77
2022/09/18 12:05:32;;;;;;;4.38;1.52;;;20.60;63.30;;;;;;5030890;28;20021;-76
2022/09/18 12:08:11;;;;;;;4.63;1.70;;;20.50;62.40;;;;;;5063273;28;20059;-76
2022/09/18 12:11:08;;;;;;;3.28;1.30;;;20.60;61.60;;;;;;5076199;28;20055;-76
2022/09/18 12:14:03;;;;;;;2.97;1.67;;;20.60;62.50;;;;;;5077674;28;20021;-76
2022/09/18 12:16:58;;;;;;;3.85;1.15;;;20.80;63.10;;;;;;5070218;28;20094;-76
2022/09/18 12:19:49;;;;;;;5.30;1.65;;;21.00;60.40;;;;;;5083095;28;20021;-76
2022/09/18 12:22:29;;;;;;;3.35;1.45;;;20.80;59.50;;;;;;5062453;28;20029;-76
2022/09/18 12:24:55;;;;;;;4.03;1.43;;;20.80;59.20;;;;;;5068164;28;20028;-76
2022/09/18 12:27:28;;;;;;;2.53;1.38;;;20.90;58.30;;;;;;5066741;28;20051;-76
2022/09/18 12:30:10;;;;;;;3.92;1.42;;;21.10;59.40;;;;;;5067013;28;20032;-76
2022/09/18 12:32:42;;;;;;;2.50;1.40;;;21.20;59.00;;;;;;5066298;28;20026;-75
2022/09/18 12:35:20;;;;;;;6.53;1.33;;;21.40;58.30;;;;;;5073175;28;20400;-76
2022/09/18 12:37:58;;;;;;;1.73;1.20;;;21.40;58.40;;;;;;5068832;28;20041;-76
2022/09/18 12:40:30;;;;;;;3.70;1.17;;;21.50;56.90;;;;;;5073922;28;20031;-76
2022/09/18 12:43:24;;;;;;;4.82;1.73;;;21.60;57.40;;;;;;5070962;28;20373;-77
2022/09/18 12:46:09;;;;;;;1.63;1.00;;;21.70;58.40;;;;;;5075304;28;20029;-77
2022/09/18 12:49:08;;;;;;;4.97;1.48;;;21.90;58.90;;;;;;5078317;28;20024;-77
2022/09/18 12:51:55;;;;;;;6.18;2.00;;;22.00;59.50;;;;;;5071717;28;20025;-76
2022/09/18 12:54:38;;;;;;;14.60;1.52;;;21.90;56.20;;;;;;5063666;28;20092;-77
2022/09/18 12:57:38;;;;;;;5.18;1.50;;;21.90;58.40;;;;;;5062324;28;20017;-77
2022/09/18 13:00:11;;;;;;;2.17;1.38;;;22.00;58.00;;;;;;5062171;28;20021;-76
2022/09/18 13:03:13;;;;;;;3.05;1.30;;;22.20;58.30;;;;;;5075740;28;20115;-76
2022/09/18 13:05:44;;;;;;;3.95;1.58;;;22.20;55.80;;;;;;5077181;28;20020;-77
2022/09/18 13:08:28;;;;;;;3.75;1.52;;;22.30;59.70;;;;;;5068574;28;20081;-77
2022/09/18 13:10:59;;;;;;;5.63;1.60;;;22.40;56.50;;;;;;5071736;28;20025;-77
2022/09/18 13:13:53;;;;;;;4.03;1.20;;;22.60;57.60;;;;;;5069518;28;20383;-76
2022/09/18 13:16:53;;;;;;;1.75;1.25;;;22.70;54.10;;;;;;5075326;28;20032;-76
2022/09/18 13:19:43;;;;;;;3.58;1.10;;;22.70;53.90;;;;;;5067757;28;20059;-77
2022/09/18 13:22:14;;;;;;;2.55;1.20;;;22.80;55.10;;;;;;5070766;28;20104;-76